logo
Search for airport 
image banner adimage banner adimage banner ad
image banner ad

YWUBN - Wubin

Located in Wubin, Australia

ICAO - , IATA -

Data provided by Airmate  

General information

Coordinates: S30°4'52" E116°36'53"
Elevation is 1145 feet MSL.
Magnetic variation is -1° East
View others Airports in Western Australia

Operational data

Special qualification required
Current time UTC:
Current local time:
Weather at : - ( 0 km )
METAR: SARI 171317Z VRB03KT 1500 BR BKN002 OVC004 14/14 Q1027
View NOTAMs / SUP AIP / TFR affecting this airport [VIEW]
Communications frequencies: [VIEW]

Runways:

RWY identifierQFULength (ft)Width (ft)SurfaceLDA (ft)
36359°288852DIRT
18179°288852DIRT

Airport contact information

Address: Wubin Australia

Satellite view of YWUBN